createdAt,value
2023-06-06T00:00:36.436Z,19.27
2023-06-06T00:01:36.440Z,19.25
2023-06-06T00:02:36.514Z,19.23
2023-06-06T00:03:36.562Z,19.24
2023-06-06T00:04:36.445Z,19.23
2023-06-06T00:05:36.408Z,19.21
2023-06-06T00:06:36.389Z,19.16
2023-06-06T00:07:36.390Z,19.15
2023-06-06T00:08:36.358Z,19.13
2023-06-06T00:09:36.360Z,19.10
2023-06-06T00:10:36.351Z,19.07
2023-06-06T00:11:36.333Z,19.02
2023-06-06T00:12:36.317Z,18.97
2023-06-06T00:13:36.310Z,19.01
2023-06-06T00:14:36.311Z,19.01
2023-06-06T00:15:36.282Z,19.01
2023-06-06T00:16:36.308Z,19.05
2023-06-06T00:17:36.290Z,19.02
2023-06-06T00:18:36.255Z,19.01
2023-06-06T00:19:36.238Z,18.97
2023-06-06T00:20:36.213Z,18.94
2023-06-06T00:21:36.216Z,18.93
2023-06-06T00:22:36.206Z,18.94
2023-06-06T00:23:36.209Z,18.93
2023-06-06T00:24:36.183Z,18.90
2023-06-06T00:25:36.169Z,18.90
2023-06-06T00:26:36.172Z,18.87
2023-06-06T00:27:36.193Z,18.82
2023-06-06T00:28:36.125Z,18.78
2023-06-06T00:29:36.127Z,18.74
2023-06-06T00:30:36.119Z,18.74
2023-06-06T00:31:36.155Z,18.69
2023-06-06T00:32:36.238Z,18.69
2023-06-06T00:33:36.092Z,18.68
2023-06-06T00:34:36.078Z,18.66
2023-06-06T00:35:36.105Z,18.64
2023-06-06T00:36:36.078Z,18.60
2023-06-06T00:37:36.059Z,18.62
2023-06-06T00:38:36.044Z,18.59
2023-06-06T00:39:36.019Z,18.59
2023-06-06T00:40:36.012Z,18.62
2023-06-06T00:41:36.016Z,18.62
2023-06-06T00:42:35.987Z,18.60
2023-06-06T00:43:35.978Z,18.64
2023-06-06T00:44:35.973Z,18.62
2023-06-06T00:45:35.971Z,18.57
2023-06-06T00:46:35.975Z,18.51
2023-06-06T00:47:35.992Z,18.49
2023-06-06T00:48:35.946Z,18.47
2023-06-06T00:49:35.990Z,18.44
2023-06-06T00:50:35.919Z,18.46
2023-06-06T00:51:35.919Z,18.47
2023-06-06T00:52:35.897Z,18.44
2023-06-06T00:53:35.882Z,18.44
2023-06-06T00:54:35.863Z,18.42
2023-06-06T00:55:35.843Z,18.36
2023-06-06T00:56:35.844Z,18.34
2023-06-06T00:57:35.831Z,18.35
2023-06-06T00:58:37.696Z,18.32
2023-06-06T00:59:35.821Z,18.34
2023-06-06T01:00:35.802Z,18.32
2023-06-06T01:01:35.829Z,18.34
2023-06-06T01:02:35.846Z,18.32
2023-06-06T01:03:35.893Z,18.32
2023-06-06T01:04:35.759Z,18.26
2023-06-06T01:05:35.754Z,18.23
2023-06-06T01:06:35.734Z,18.25
2023-06-06T01:07:35.760Z,18.23
2023-06-06T01:08:35.713Z,18.21
2023-06-06T01:09:35.699Z,18.20
2023-06-06T01:10:35.716Z,18.20
2023-06-06T01:11:35.688Z,18.19
2023-06-06T01:12:35.664Z,18.19
2023-06-06T01:13:35.687Z,18.17
2023-06-06T01:14:35.658Z,18.19
2023-06-06T01:15:35.670Z,18.14
2023-06-06T01:16:35.630Z,18.14
2023-06-06T01:17:35.676Z,18.09
2023-06-06T01:18:35.602Z,18.09
2023-06-06T01:19:35.602Z,18.07
2023-06-06T01:20:56.593Z,18.02
2023-06-06T01:21:35.563Z,18.01
2023-06-06T01:22:35.574Z,17.98
2023-06-06T01:23:35.610Z,17.96
2023-06-06T01:24:35.540Z,17.92
2023-06-06T01:25:35.554Z,17.89
2023-06-06T01:26:35.545Z,17.87
2023-06-06T01:27:35.504Z,17.91
2023-06-06T01:28:35.488Z,17.91
2023-06-06T01:29:35.483Z,17.92
2023-06-06T01:30:35.480Z,17.91
2023-06-06T01:31:35.521Z,17.92
2023-06-06T01:32:35.494Z,17.92
2023-06-06T01:33:35.419Z,17.92
2023-06-06T01:34:35.410Z,17.89
2023-06-06T01:35:35.422Z,17.89
2023-06-06T01:36:35.427Z,17.86
2023-06-06T01:37:35.391Z,17.83
2023-06-06T01:38:35.370Z,17.83
2023-06-06T01:39:35.367Z,17.80
2023-06-06T01:40:35.396Z,17.79
2023-06-06T01:41:35.352Z,17.76
2023-06-06T01:42:35.350Z,17.70
2023-06-06T01:43:35.337Z,17.68
2023-06-06T01:44:35.338Z,17.68
2023-06-06T01:45:35.329Z,17.66
2023-06-06T01:46:35.376Z,17.68
2023-06-06T01:47:35.317Z,17.68
2023-06-06T01:48:35.262Z,17.66
2023-06-06T01:49:35.259Z,17.65
2023-06-06T01:50:35.262Z,17.63
2023-06-06T01:51:35.222Z,17.58
2023-06-06T01:52:35.233Z,17.55
2023-06-06T01:53:35.235Z,17.55
2023-06-06T01:54:35.226Z,17.53
2023-06-06T01:55:35.211Z,17.47
2023-06-06T01:56:35.203Z,17.46
2023-06-06T01:57:35.186Z,17.46
2023-06-06T01:58:35.198Z,17.43
2023-06-06T01:59:35.149Z,17.40
2023-06-06T02:00:35.166Z,17.40
2023-06-06T02:01:35.209Z,17.36
2023-06-06T02:02:35.229Z,17.35
2023-06-06T02:03:35.177Z,17.35
2023-06-06T02:04:35.113Z,17.36
2023-06-06T02:05:35.114Z,17.36
2023-06-06T02:06:35.081Z,17.39
2023-06-06T02:07:35.053Z,17.36
2023-06-06T02:08:35.093Z,17.39
2023-06-06T02:09:35.048Z,17.36
2023-06-06T02:10:35.055Z,17.38
2023-06-06T02:11:35.014Z,17.38
2023-06-06T02:12:35.018Z,17.38
2023-06-06T02:13:35.017Z,17.38
2023-06-06T02:14:35.010Z,17.33
2023-06-06T02:15:34.992Z,17.30
2023-06-06T02:16:35.021Z,17.30
2023-06-06T02:17:34.988Z,17.28
2023-06-06T02:18:34.979Z,17.27
2023-06-06T02:19:34.944Z,17.28
2023-06-06T02:20:34.961Z,17.27
2023-06-06T02:21:34.907Z,17.22
2023-06-06T02:22:34.921Z,17.20
2023-06-06T02:23:34.936Z,17.17
2023-06-06T02:24:34.894Z,17.17
2023-06-06T02:25:34.860Z,17.15
2023-06-06T02:26:34.850Z,17.15
2023-06-06T02:27:34.836Z,17.17
2023-06-06T02:28:34.846Z,17.15
2023-06-06T02:29:34.832Z,17.12
2023-06-06T02:30:34.827Z,17.09
2023-06-06T02:31:34.811Z,17.06
2023-06-06T02:32:34.823Z,17.07
2023-06-06T02:33:34.780Z,17.06
2023-06-06T02:34:34.766Z,17.07
2023-06-06T02:35:34.748Z,17.07
2023-06-06T02:36:34.746Z,17.06
2023-06-06T02:37:34.757Z,17.02
2023-06-06T02:38:34.771Z,17.02
2023-06-06T02:39:34.719Z,17.02
2023-06-06T02:40:34.716Z,17.02
2023-06-06T02:41:34.700Z,17.02
2023-06-06T02:42:34.683Z,17.00
2023-06-06T02:43:34.695Z,16.98
2023-06-06T02:44:34.679Z,16.95
2023-06-06T02:45:34.656Z,16.91
2023-06-06T02:46:34.686Z,16.88
2023-06-06T02:47:34.726Z,16.88
2023-06-06T02:48:34.644Z,16.85
2023-06-06T02:49:34.603Z,16.80
2023-06-06T02:50:34.614Z,16.77
2023-06-06T02:51:34.576Z,16.77
2023-06-06T02:52:34.584Z,16.77
2023-06-06T02:53:34.589Z,16.77
2023-06-06T02:54:34.555Z,16.77
2023-06-06T02:55:34.543Z,16.72
2023-06-06T02:56:34.536Z,16.70
2023-06-06T02:57:34.510Z,16.67
2023-06-06T02:58:34.521Z,16.66
2023-06-06T02:59:34.527Z,16.62
2023-06-06T03:00:34.508Z,16.63
2023-06-06T03:01:34.561Z,16.63
2023-06-06T03:02:34.487Z,16.60
2023-06-06T03:03:34.474Z,16.59
2023-06-06T03:04:34.470Z,16.59
2023-06-06T03:05:34.456Z,16.60
2023-06-06T03:06:34.434Z,16.57
2023-06-06T03:07:34.423Z,16.55
2023-06-06T03:08:34.393Z,16.54
2023-06-06T03:09:34.408Z,16.52
2023-06-06T03:10:34.400Z,16.50
2023-06-06T03:11:34.376Z,16.47
2023-06-06T03:12:34.398Z,16.44
2023-06-06T03:13:34.362Z,16.44
2023-06-06T03:14:41.261Z,16.44
2023-06-06T03:15:35.322Z,16.44
2023-06-06T03:16:34.417Z,16.41
2023-06-06T03:17:34.346Z,16.44
2023-06-06T03:18:34.307Z,16.44
2023-06-06T03:19:34.294Z,16.42
2023-06-06T03:20:34.300Z,16.40
2023-06-06T03:21:34.275Z,16.37
2023-06-06T03:22:34.265Z,16.40
2023-06-06T03:23:34.278Z,16.41
2023-06-06T03:24:34.238Z,16.36
2023-06-06T03:25:34.234Z,16.36
2023-06-06T03:26:34.221Z,16.34
2023-06-06T03:27:34.224Z,16.36
2023-06-06T03:28:34.187Z,16.37
2023-06-06T03:29:34.195Z,16.40
2023-06-06T03:30:34.229Z,16.41
2023-06-06T03:31:34.338Z,16.37
2023-06-06T03:32:34.191Z,16.36
2023-06-06T03:33:34.124Z,16.36
2023-06-06T03:34:34.141Z,16.34
2023-06-06T03:35:34.126Z,16.32
2023-06-06T03:36:34.171Z,16.29
2023-06-06T03:37:34.111Z,16.27
2023-06-06T03:38:34.081Z,16.32
2023-06-06T03:39:34.061Z,16.30
2023-06-06T03:40:34.065Z,16.30
2023-06-06T03:41:34.059Z,16.29
2023-06-06T03:42:34.046Z,16.29
2023-06-06T03:43:34.044Z,16.25
2023-06-06T03:44:34.035Z,16.25
2023-06-06T03:45:34.021Z,16.23
2023-06-06T03:46:34.022Z,16.22
2023-06-06T03:47:34.025Z,16.18
2023-06-06T03:48:33.984Z,16.18
2023-06-06T03:49:33.954Z,16.16
2023-06-06T03:50:33.974Z,16.14
2023-06-06T03:51:33.967Z,16.11
2023-06-06T03:52:33.948Z,16.11
2023-06-06T03:53:33.949Z,16.11
2023-06-06T03:54:33.915Z,16.08
2023-06-06T03:55:33.937Z,16.07
2023-06-06T03:56:33.884Z,16.06
2023-06-06T03:57:34.056Z,16.06
2023-06-06T03:58:33.894Z,16.04
2023-06-06T03:59:33.931Z,16.03
2023-06-06T04:00:33.860Z,16.03
2023-06-06T04:01:33.894Z,16.01
2023-06-06T04:02:33.861Z,16.04
2023-06-06T04:03:33.933Z,16.01
2023-06-06T04:04:34.151Z,16.01
2023-06-06T04:05:33.799Z,16.03
2023-06-06T04:06:33.779Z,16.04
2023-06-06T04:07:33.778Z,16.06
2023-06-06T04:08:33.758Z,16.06
2023-06-06T04:09:33.926Z,16.06
2023-06-06T04:10:33.746Z,16.07
2023-06-06T04:11:33.761Z,16.04
2023-06-06T04:12:33.719Z,16.04
2023-06-06T04:13:33.700Z,16.06
2023-06-06T04:14:33.699Z,16.04
2023-06-06T04:15:33.718Z,16.04
2023-06-06T04:16:33.655Z,16.07
2023-06-06T04:17:33.692Z,16.07
2023-06-06T04:18:33.642Z,16.06
2023-06-06T04:19:33.680Z,16.06
2023-06-06T04:20:33.627Z,16.03
2023-06-06T04:21:33.632Z,16.06
2023-06-06T04:22:33.599Z,16.08
2023-06-06T04:23:33.640Z,16.08
2023-06-06T04:24:33.581Z,16.07
2023-06-06T04:25:33.603Z,16.08
2023-06-06T04:26:33.557Z,16.08
2023-06-06T04:27:33.553Z,16.08
2023-06-06T04:28:34.254Z,16.10
2023-06-06T04:29:35.701Z,16.11
2023-06-06T04:30:33.543Z,16.11
2023-06-06T04:31:34.214Z,16.13
2023-06-06T04:32:33.570Z,16.11
2023-06-06T04:33:33.519Z,16.10
2023-06-06T04:34:33.485Z,16.10
2023-06-06T04:35:33.474Z,16.11
2023-06-06T04:36:33.454Z,16.10
2023-06-06T04:37:33.577Z,16.10
2023-06-06T04:38:33.430Z,16.11
2023-06-06T04:39:33.454Z,16.13
2023-06-06T04:40:46.545Z,16.13
2023-06-06T04:42:33.393Z,16.16
2023-06-06T04:43:33.383Z,16.14
2023-06-06T04:44:33.365Z,16.14
2023-06-06T04:45:33.354Z,16.14
2023-06-06T04:46:33.406Z,16.16
2023-06-06T04:47:33.435Z,16.14
2023-06-06T04:48:33.334Z,16.14
2023-06-06T04:49:33.331Z,16.18
2023-06-06T04:50:33.294Z,16.18
2023-06-06T04:51:33.299Z,16.22
2023-06-06T04:52:33.274Z,16.17
2023-06-06T04:53:33.276Z,16.18
2023-06-06T04:54:33.262Z,16.18
2023-06-06T04:55:33.263Z,16.22
2023-06-06T04:56:33.225Z,16.23
2023-06-06T04:57:33.238Z,16.25
2023-06-06T04:58:33.232Z,16.26
2023-06-06T04:59:33.197Z,16.25
2023-06-06T05:00:33.217Z,16.27
2023-06-06T05:01:33.362Z,16.27
2023-06-06T05:02:33.243Z,16.29
2023-06-06T05:03:33.253Z,16.30
2023-06-06T05:04:33.192Z,16.30
2023-06-06T05:05:33.148Z,16.30
2023-06-06T05:06:33.135Z,16.32
2023-06-06T05:07:33.128Z,16.32
2023-06-06T05:08:33.118Z,16.33
2023-06-06T05:09:33.116Z,16.33
2023-06-06T05:10:33.096Z,16.34
2023-06-06T05:11:33.114Z,16.34
2023-06-06T05:12:33.078Z,16.37
2023-06-06T05:13:33.061Z,16.37
2023-06-06T05:14:33.052Z,16.41
2023-06-06T05:15:33.063Z,16.42
2023-06-06T05:16:33.048Z,16.42
2023-06-06T05:17:33.094Z,16.42
2023-06-06T05:18:33.025Z,16.42
2023-06-06T05:19:33.002Z,16.47
2023-06-06T05:20:32.975Z,16.48
2023-06-06T05:21:32.962Z,16.47
2023-06-06T05:22:32.967Z,16.50
2023-06-06T05:23:33.109Z,16.50
2023-06-06T05:24:32.948Z,16.54
2023-06-06T05:25:32.938Z,16.55
2023-06-06T05:26:32.917Z,16.57
2023-06-06T05:27:32.912Z,16.57
2023-06-06T05:28:32.896Z,16.60
2023-06-06T05:29:32.885Z,16.59
2023-06-06T05:30:32.876Z,16.60
2023-06-06T05:31:32.880Z,16.63
2023-06-06T05:32:32.952Z,16.63
2023-06-06T05:33:32.872Z,16.65
2023-06-06T05:34:32.832Z,16.62
2023-06-06T05:35:32.832Z,16.65
2023-06-06T05:36:32.883Z,16.65
2023-06-06T05:37:32.810Z,16.66
2023-06-06T05:38:32.788Z,16.67
2023-06-06T05:39:32.766Z,16.69
2023-06-06T05:40:32.769Z,16.70
2023-06-06T05:41:32.777Z,16.72
2023-06-06T05:42:32.736Z,16.73
2023-06-06T05:43:32.734Z,16.77
2023-06-06T05:44:32.750Z,16.80
2023-06-06T05:45:32.716Z,16.81
2023-06-06T05:46:32.740Z,16.80
2023-06-06T05:47:32.703Z,16.80
2023-06-06T05:48:32.693Z,16.82
2023-06-06T05:49:32.668Z,16.84
2023-06-06T05:50:32.986Z,16.85
2023-06-06T05:51:33.425Z,16.88
2023-06-06T05:52:32.823Z,16.88
2023-06-06T05:53:33.732Z,16.90
2023-06-06T05:54:49.102Z,16.91
2023-06-06T05:55:34.608Z,16.90
2023-06-06T05:56:33.314Z,16.92
2023-06-06T05:57:33.298Z,16.95
2023-06-06T05:58:34.572Z,16.95
2023-06-06T05:59:33.242Z,16.96
2023-06-06T06:00:33.575Z,16.98
2023-06-06T06:01:33.640Z,17.00
2023-06-06T06:02:32.825Z,17.00
2023-06-06T06:03:33.470Z,17.05
2023-06-06T06:04:33.306Z,17.05
2023-06-06T06:05:32.840Z,17.09
2023-06-06T06:06:34.034Z,17.10
2023-06-06T06:07:32.517Z,17.10
2023-06-06T06:08:33.189Z,17.14
2023-06-06T06:09:32.513Z,17.15
2023-06-06T06:10:33.144Z,17.17
2023-06-06T06:11:32.457Z,17.18
2023-06-06T06:12:33.905Z,17.20
2023-06-06T06:13:32.413Z,17.22
2023-06-06T06:14:33.386Z,17.24
2023-06-06T06:15:32.876Z,17.25
2023-06-06T06:16:33.396Z,17.27
2023-06-06T06:17:32.439Z,17.30
2023-06-06T06:18:33.853Z,17.32
2023-06-06T06:19:32.603Z,17.36
2023-06-06T06:20:33.323Z,17.38
2023-06-06T06:21:32.350Z,17.43
2023-06-06T06:22:33.021Z,17.45
2023-06-06T06:23:32.346Z,17.47
2023-06-06T06:24:33.271Z,17.49
2023-06-06T06:25:32.322Z,17.53
2023-06-06T06:26:34.261Z,17.55
2023-06-06T06:27:32.270Z,17.57
2023-06-06T06:28:33.738Z,17.58
2023-06-06T06:29:32.255Z,17.60
2023-06-06T06:30:33.744Z,17.62
2023-06-06T06:31:32.301Z,17.65
2023-06-06T06:32:32.221Z,17.66
2023-06-06T06:33:32.218Z,17.68
2023-06-06T06:34:32.259Z,17.73
2023-06-06T06:35:32.211Z,17.74
2023-06-06T06:36:32.279Z,17.76
2023-06-06T06:37:32.157Z,17.79
2023-06-06T06:38:32.148Z,17.81
2023-06-06T06:39:32.179Z,17.83
2023-06-06T06:40:32.111Z,17.86
2023-06-06T06:41:32.108Z,17.89
2023-06-06T06:42:32.093Z,17.91
2023-06-06T06:43:32.827Z,17.94
2023-06-06T06:44:32.062Z,17.98
2023-06-06T06:45:32.088Z,18.01
2023-06-06T06:46:32.083Z,18.02
2023-06-06T06:47:32.068Z,18.04
2023-06-06T06:48:32.024Z,18.07
2023-06-06T06:49:32.024Z,18.09
2023-06-06T06:50:32.036Z,18.11
2023-06-06T06:51:32.315Z,18.13
2023-06-06T06:52:31.970Z,18.16
2023-06-06T06:53:32.000Z,18.20
2023-06-06T06:54:31.945Z,18.21
2023-06-06T06:55:31.944Z,18.25
2023-06-06T06:56:31.997Z,18.28
2023-06-06T06:57:31.932Z,18.29
2023-06-06T06:58:31.909Z,18.32
2023-06-06T06:59:31.925Z,18.34
2023-06-06T07:00:31.891Z,18.36
2023-06-06T07:01:31.936Z,18.36
2023-06-06T07:02:31.914Z,18.39
2023-06-06T07:03:31.874Z,18.41
2023-06-06T07:04:31.853Z,18.44
2023-06-06T07:05:31.924Z,18.47
2023-06-06T07:06:31.833Z,18.49
2023-06-06T07:07:31.818Z,18.51
2023-06-06T07:08:31.814Z,18.53
2023-06-06T07:09:31.792Z,18.57
2023-06-06T07:10:31.787Z,18.60
2023-06-06T07:11:31.794Z,18.62
2023-06-06T07:12:31.790Z,18.66
2023-06-06T07:13:31.748Z,18.68
2023-06-06T07:14:31.722Z,18.69
2023-06-06T07:15:31.781Z,18.71
2023-06-06T07:16:31.827Z,18.75
2023-06-06T07:17:31.719Z,18.78
2023-06-06T07:18:31.699Z,18.83
2023-06-06T07:19:31.680Z,18.84
2023-06-06T07:20:31.700Z,18.87
2023-06-06T07:21:31.675Z,18.90
2023-06-06T07:22:31.671Z,18.91
2023-06-06T07:23:31.695Z,18.94
2023-06-06T07:24:31.652Z,18.94
2023-06-06T07:25:31.625Z,18.99
2023-06-06T07:26:31.614Z,19.02
2023-06-06T07:27:31.617Z,19.06
2023-06-06T07:28:31.596Z,19.07
2023-06-06T07:29:31.623Z,19.13
2023-06-06T07:30:31.573Z,19.13
2023-06-06T07:31:31.621Z,19.16
2023-06-06T07:32:31.568Z,19.20
2023-06-06T07:33:31.551Z,19.21
2023-06-06T07:34:31.522Z,19.23
2023-06-06T07:35:31.536Z,19.24
2023-06-06T07:36:31.498Z,19.25
2023-06-06T07:37:31.486Z,19.27
2023-06-06T07:38:31.485Z,19.30
2023-06-06T07:39:31.489Z,19.32
2023-06-06T07:40:31.452Z,19.35
2023-06-06T07:41:31.480Z,19.38
2023-06-06T07:42:31.421Z,19.39
2023-06-06T07:43:31.431Z,19.42
2023-06-06T07:44:31.435Z,19.43
2023-06-06T07:45:31.439Z,19.46
2023-06-06T07:46:31.447Z,19.50
2023-06-06T07:47:31.476Z,19.55
2023-06-06T07:48:31.384Z,19.58
2023-06-06T07:49:31.363Z,19.62
2023-06-06T07:50:31.351Z,19.64
2023-06-06T07:51:31.360Z,19.70
2023-06-06T07:52:32.170Z,19.72
2023-06-06T07:53:31.364Z,19.78
2023-06-06T07:54:32.835Z,19.80
2023-06-06T07:55:31.304Z,19.83
2023-06-06T07:56:32.008Z,19.86
2023-06-06T07:57:31.319Z,19.92
2023-06-06T07:58:31.976Z,19.94
2023-06-06T07:59:31.276Z,19.95
2023-06-06T08:00:32.736Z,19.98
2023-06-06T08:01:31.272Z,20.02
2023-06-06T08:02:31.611Z,20.05
2023-06-06T08:03:31.253Z,20.05
2023-06-06T08:04:31.236Z,20.08
2023-06-06T08:05:31.275Z,20.10
2023-06-06T08:06:31.212Z,20.13
2023-06-06T08:07:32.037Z,20.15
2023-06-06T08:08:31.160Z,20.17
2023-06-06T08:09:31.224Z,20.20
2023-06-06T08:10:31.134Z,20.23
2023-06-06T08:11:31.129Z,20.30
2023-06-06T08:12:31.141Z,20.31
2023-06-06T08:13:31.093Z,20.33
2023-06-06T08:14:31.076Z,20.35
2023-06-06T08:15:31.086Z,20.38
2023-06-06T08:16:31.057Z,20.42
2023-06-06T08:17:31.127Z,20.46
2023-06-06T08:18:31.066Z,20.48
2023-06-06T08:19:31.035Z,20.54
2023-06-06T08:20:31.030Z,20.57
2023-06-06T08:21:31.054Z,20.58
2023-06-06T08:22:31.026Z,20.63
2023-06-06T08:23:31.025Z,20.66
2023-06-06T08:24:31.120Z,20.69
2023-06-06T08:25:30.955Z,20.69
2023-06-06T08:26:30.964Z,20.72
2023-06-06T08:27:30.981Z,20.73
2023-06-06T08:28:30.972Z,20.78
2023-06-06T08:29:30.922Z,20.81
2023-06-06T08:30:30.934Z,20.82
2023-06-06T08:31:31.153Z,20.87
2023-06-06T08:32:30.936Z,20.91
2023-06-06T08:33:30.886Z,20.91
2023-06-06T08:34:30.878Z,20.96
2023-06-06T08:35:30.838Z,20.98
2023-06-06T08:36:30.874Z,21.05
2023-06-06T08:37:30.835Z,21.03
2023-06-06T08:38:30.861Z,21.01
2023-06-06T08:39:30.818Z,21.05
2023-06-06T08:40:30.798Z,21.08
2023-06-06T08:41:30.792Z,21.09
2023-06-06T08:42:30.789Z,21.12
2023-06-06T08:43:30.767Z,21.15
2023-06-06T08:44:30.760Z,21.21
2023-06-06T08:45:30.848Z,21.26
2023-06-06T08:46:30.763Z,21.30
2023-06-06T08:47:30.802Z,21.36
2023-06-06T08:48:30.730Z,21.38
2023-06-06T08:49:30.715Z,21.42
2023-06-06T08:50:30.716Z,21.46
2023-06-06T08:51:30.698Z,21.49
2023-06-06T08:52:30.693Z,21.53
2023-06-06T08:53:30.663Z,21.58
2023-06-06T08:54:30.681Z,21.61
2023-06-06T08:55:30.643Z,21.66
2023-06-06T08:56:30.668Z,21.70
2023-06-06T08:57:31.008Z,21.71
2023-06-06T08:58:30.629Z,21.79
2023-06-06T08:59:30.665Z,21.82
2023-06-06T09:00:30.629Z,21.85
2023-06-06T09:01:30.602Z,21.86
2023-06-06T09:02:30.599Z,21.90
2023-06-06T09:03:32.368Z,21.93
2023-06-06T09:04:30.542Z,21.94
2023-06-06T09:05:30.523Z,21.98
2023-06-06T09:06:30.588Z,21.99
2023-06-06T09:07:30.524Z,22.04
2023-06-06T09:08:30.497Z,22.05
2023-06-06T09:09:30.500Z,22.08
2023-06-06T09:10:30.496Z,22.12
2023-06-06T09:11:30.490Z,22.17
2023-06-06T09:12:30.476Z,22.21
2023-06-06T09:13:30.464Z,22.23
2023-06-06T09:14:30.444Z,22.27
2023-06-06T09:15:30.430Z,22.29
2023-06-06T09:16:30.463Z,22.31
2023-06-06T09:17:30.467Z,22.36
2023-06-06T09:18:30.403Z,22.39
2023-06-06T09:19:30.393Z,22.44
2023-06-06T09:20:30.454Z,22.48
2023-06-06T09:21:30.481Z,22.51
2023-06-06T09:22:30.369Z,22.56
2023-06-06T09:23:32.572Z,22.60
2023-06-06T09:24:30.387Z,22.61
2023-06-06T09:25:31.369Z,22.66
2023-06-06T09:26:30.406Z,22.70
2023-06-06T09:27:31.018Z,22.72
2023-06-06T09:28:30.324Z,22.75
2023-06-06T09:29:30.336Z,22.78
2023-06-06T09:30:31.275Z,22.82
2023-06-06T09:31:31.769Z,22.85
2023-06-06T09:32:30.638Z,22.88
2023-06-06T09:33:30.679Z,22.88
2023-06-06T09:34:30.250Z,22.91
2023-06-06T09:35:30.228Z,22.93
2023-06-06T09:36:30.206Z,22.97
2023-06-06T09:37:30.236Z,23.03
2023-06-06T09:38:30.204Z,23.06
2023-06-06T09:39:30.178Z,23.09
2023-06-06T09:40:30.199Z,23.15
2023-06-06T09:41:30.155Z,23.18
2023-06-06T09:42:30.130Z,23.21
2023-06-06T09:43:30.123Z,23.22
2023-06-06T09:44:30.192Z,23.22
2023-06-06T09:45:30.223Z,23.23
2023-06-06T09:46:30.177Z,23.25
2023-06-06T09:47:30.191Z,23.26
2023-06-06T09:48:30.194Z,23.26
2023-06-06T09:49:30.061Z,23.31
2023-06-06T09:50:30.120Z,23.31
2023-06-06T09:51:30.057Z,23.34
2023-06-06T09:52:30.030Z,23.38
2023-06-06T09:53:30.130Z,23.42
2023-06-06T09:54:30.027Z,23.47
2023-06-06T09:55:30.016Z,23.52
2023-06-06T09:56:30.032Z,23.56
2023-06-06T09:57:29.970Z,23.57
2023-06-06T09:58:29.964Z,23.60
2023-06-06T09:59:29.960Z,23.60
2023-06-06T10:00:29.978Z,23.60
2023-06-06T10:01:30.031Z,23.59
2023-06-06T10:02:30.418Z,23.59
2023-06-06T10:03:30.003Z,23.57
2023-06-06T10:04:30.140Z,23.56
2023-06-06T10:05:30.047Z,23.54
2023-06-06T10:06:29.882Z,23.54
2023-06-06T10:07:29.870Z,23.53
2023-06-06T10:08:29.855Z,23.54
2023-06-06T10:09:29.926Z,23.57
2023-06-06T10:10:29.915Z,23.60
2023-06-06T10:11:29.810Z,23.67
2023-06-06T10:12:29.826Z,23.69
2023-06-06T10:13:29.818Z,23.74
2023-06-06T10:14:30.063Z,23.72
2023-06-06T10:15:29.778Z,23.74
2023-06-06T10:16:30.684Z,23.81
2023-06-06T10:17:29.772Z,23.87
2023-06-06T10:18:29.780Z,23.96
2023-06-06T10:19:29.736Z,24.00
2023-06-06T10:20:29.753Z,24.06
2023-06-06T10:21:29.722Z,24.11
2023-06-06T10:22:29.777Z,24.18
2023-06-06T10:23:29.786Z,24.27
2023-06-06T10:24:29.811Z,24.34
2023-06-06T10:25:29.678Z,24.37
2023-06-06T10:26:29.655Z,24.41
2023-06-06T10:27:29.683Z,24.48
2023-06-06T10:28:29.652Z,24.51
2023-06-06T10:29:29.641Z,24.55
2023-06-06T10:30:29.610Z,24.60
2023-06-06T10:31:29.628Z,24.63
2023-06-06T10:32:29.640Z,24.67
2023-06-06T10:33:29.594Z,24.74
2023-06-06T10:34:29.577Z,24.75
2023-06-06T10:35:29.599Z,24.82
2023-06-06T10:36:29.569Z,24.87
2023-06-06T10:37:29.536Z,24.97
2023-06-06T10:38:29.568Z,25.01
2023-06-06T10:39:29.550Z,25.08
2023-06-06T10:40:29.531Z,25.12
2023-06-06T10:41:29.546Z,25.22
2023-06-06T10:42:29.524Z,25.23
2023-06-06T10:44:29.502Z,25.38
2023-06-06T10:45:29.481Z,25.45
2023-06-06T10:46:29.530Z,25.53
2023-06-06T10:47:29.793Z,25.59
2023-06-06T10:48:29.456Z,25.66
2023-06-06T10:49:29.440Z,25.75
2023-06-06T10:50:29.418Z,25.78
2023-06-06T10:51:29.427Z,25.81
2023-06-06T10:52:29.420Z,25.83
2023-06-06T10:53:29.398Z,25.86
2023-06-06T10:54:29.352Z,25.93
2023-06-06T10:55:29.496Z,26.00
2023-06-06T10:56:29.335Z,26.06
2023-06-06T10:57:29.362Z,26.13
2023-06-06T10:58:29.343Z,26.19
2023-06-06T10:59:29.385Z,26.21
2023-06-06T11:00:29.349Z,26.28
2023-06-06T11:01:29.345Z,26.34
2023-06-06T11:02:29.344Z,26.36
2023-06-06T11:03:29.318Z,26.44
2023-06-06T11:04:29.386Z,26.51
2023-06-06T11:05:29.244Z,26.54
2023-06-06T11:06:29.262Z,26.57
2023-06-06T11:07:29.216Z,26.60
2023-06-06T11:08:30.408Z,26.65
2023-06-06T11:09:29.197Z,26.72
2023-06-06T11:10:29.204Z,26.75
2023-06-06T11:11:29.174Z,26.76
2023-06-06T11:12:29.237Z,26.78
2023-06-06T11:13:29.167Z,26.81
2023-06-06T11:14:29.192Z,26.81
2023-06-06T11:15:29.175Z,26.84
2023-06-06T11:16:29.214Z,26.84
2023-06-06T11:17:29.200Z,26.86
2023-06-06T11:18:29.122Z,26.88
2023-06-06T11:19:29.113Z,26.91
2023-06-06T11:20:29.090Z,26.93
2023-06-06T11:21:29.091Z,26.90
2023-06-06T11:22:29.114Z,26.93
2023-06-06T11:23:29.076Z,26.86
2023-06-06T11:24:29.041Z,26.83
2023-06-06T11:25:29.049Z,26.81
2023-06-06T11:26:29.770Z,26.79
2023-06-06T11:27:29.080Z,26.79
2023-06-06T11:28:29.034Z,26.81
2023-06-06T11:29:29.011Z,26.84
2023-06-06T11:30:29.002Z,26.86
2023-06-06T11:31:29.058Z,26.88
2023-06-06T11:32:28.994Z,26.96
2023-06-06T11:33:28.929Z,26.98
2023-06-06T11:34:28.943Z,27.05
2023-06-06T11:35:28.963Z,27.12
2023-06-06T11:36:29.827Z,27.18
2023-06-06T11:37:28.905Z,27.21
2023-06-06T11:38:28.889Z,27.24
2023-06-06T11:39:28.899Z,27.30
2023-06-06T11:40:28.888Z,27.33
2023-06-06T11:41:28.876Z,27.39
2023-06-06T11:42:28.861Z,27.42
2023-06-06T11:43:28.871Z,27.42
2023-06-06T11:44:28.866Z,27.45
2023-06-06T11:45:28.863Z,27.49
2023-06-06T11:46:28.952Z,27.53
2023-06-06T11:47:28.825Z,27.61
2023-06-06T11:48:28.882Z,27.66
2023-06-06T11:49:28.785Z,27.72
2023-06-06T11:50:28.802Z,27.78
2023-06-06T11:51:28.761Z,27.77
2023-06-06T11:52:28.809Z,27.80
2023-06-06T11:53:28.733Z,27.81
2023-06-06T11:54:31.107Z,27.87
2023-06-06T11:55:28.702Z,27.91
2023-06-06T11:56:28.738Z,27.98
2023-06-06T11:57:28.680Z,28.06
2023-06-06T11:58:28.712Z,28.11
2023-06-06T11:59:28.653Z,28.20
2023-06-06T12:00:28.676Z,28.25
2023-06-06T12:01:28.624Z,28.28
2023-06-06T12:02:28.738Z,28.33
2023-06-06T12:03:28.715Z,28.40
2023-06-06T12:04:28.596Z,28.50
2023-06-06T12:05:28.636Z,28.57
2023-06-06T12:06:29.174Z,28.60
2023-06-06T12:07:28.583Z,28.69
2023-06-06T12:08:28.584Z,28.73
2023-06-06T12:09:28.559Z,28.80
2023-06-06T12:10:28.555Z,28.91
2023-06-06T12:11:28.539Z,28.94
2023-06-06T12:12:28.527Z,28.97
2023-06-06T12:13:28.552Z,29.07
2023-06-06T12:14:28.530Z,29.11
2023-06-06T12:15:28.537Z,29.20
2023-06-06T12:16:28.598Z,29.27
2023-06-06T12:17:28.504Z,29.41
2023-06-06T12:18:28.468Z,29.52
2023-06-06T12:19:28.445Z,29.69
2023-06-06T12:20:28.472Z,29.79
2023-06-06T12:21:28.425Z,29.94
2023-06-06T12:22:28.434Z,30.11
2023-06-06T12:23:28.439Z,30.23
2023-06-06T12:24:29.352Z,30.37
2023-06-06T12:25:28.427Z,30.57
2023-06-06T12:26:28.401Z,30.81
2023-06-06T12:27:28.382Z,31.03
2023-06-06T12:28:28.362Z,31.28
2023-06-06T12:29:28.342Z,31.69
2023-06-06T12:30:28.338Z,32.28
2023-06-06T12:31:28.329Z,32.91
2023-06-06T12:32:28.458Z,33.59
2023-06-06T12:33:28.303Z,34.28
2023-06-06T12:34:28.309Z,35.12
2023-06-06T12:35:28.286Z,35.85
2023-06-06T12:36:28.265Z,36.53
2023-06-06T12:37:29.005Z,37.05
2023-06-06T12:38:28.273Z,37.77
2023-06-06T12:39:28.243Z,38.44
2023-06-06T12:40:28.314Z,39.28
2023-06-06T12:41:28.225Z,40.10
2023-06-06T12:42:28.240Z,40.68
2023-06-06T12:43:30.420Z,41.07
2023-06-06T12:44:28.248Z,41.44
2023-06-06T12:45:28.203Z,41.96
2023-06-06T12:46:28.211Z,42.50
2023-06-06T12:47:28.974Z,43.01
2023-06-06T12:48:28.196Z,43.30
2023-06-06T12:49:28.157Z,43.37
2023-06-06T12:50:28.169Z,43.53
2023-06-06T12:51:28.153Z,44.09
2023-06-06T12:52:28.130Z,44.46
2023-06-06T12:53:28.202Z,44.97
2023-06-06T12:54:28.095Z,45.41